Flight Track Log - Related Links

Times and Time Zones

All times are in EDT time to prevent confusion due to time zone crossing. See the SWA1718 flight status page for this flight to view local times or setup timezone preferences in your user account.

Time Position Orientation Groundspeed Altitude Reporting Facility
EDT Latitude Longitude Course Direction KTS km/h feet Rate Location/Type
Wed 17:02:00 35.4603 -101.7958 339° North 318 589 10.900  Level Albuquerque Center
Wed 17:03:02 35.5558 -101.8411 339° North 354 655 13.800 2.661 Climbing Albuquerque Center
Wed 17:04:04 35.6558 -101.8875 339° North 375 695 16.400 2.758 Climbing Albuquerque Center
Wed 17:05:00 35.8145 -101.9691 342° North  Level FlightAware Approximate
Wed 17:05:06 35.7575 -101.9347 339° North 388 719 19.500  Level Albuquerque Center
Wed 17:06:00 35.9126 -102.0209 345° North  Level FlightAware Approximate
Wed 17:06:08 35.8619 -101.9842 339° North 397 735 21.500  Level Albuquerque Center
Wed 17:07:10 35.9942 -102.0458 339° North 417 772 23.700 2.081 Climbing Albuquerque Center
Wed 17:08:12 36.1081 -102.0992 339° North 433 801 25.800 1.984 Climbing Albuquerque Center
Wed 17:09:14 36.2214 -102.1531 339° North 437 810 27.800 1.548 Climbing Albuquerque Center
Wed 17:10:16 36.3358 -102.2056 340° North 437 810 29.000 1.210 Climbing Albuquerque Center
Wed 17:11:18 36.4533 -102.2633 338° Northwest 448 830 30.300 1.210 Climbing Albuquerque Center
Wed 17:12:20 36.5733 -102.3208 339° North 460 851 31.500 1.790 Climbing Albuquerque Center
Wed 17:13:22 36.7147 -102.3864 340° North 454 840 34.000 1.210 Climbing Albuquerque Center
Wed 17:14:24 36.8289 -102.4444 338° Northwest 444 822 34.000  Level Albuquerque Center
Wed 17:15:26 36.9567 -102.5053 339° North 455 843 34.000  Level Albuquerque Center
Wed 17:16:28 37.0658 -102.5578 339° North 458 848 34.000  Level Albuquerque Center
Wed 17:17:30 37.1972 -102.6225 339° North 456 845 34.000  Level Albuquerque Center
Wed 17:18:32 37.3103 -102.6772 339° North 455 843 34.000  Level Albuquerque Center
Wed 17:19:16 37.4011 -102.7214 339° North 449 832 34.000  Level Denver Center
Wed 17:20:17 37.5125 -102.7764 339° North 449 832 34.000  Level Denver Center
Wed 17:21:18 37.6514 -102.8211 346° North 460 851 34.000  Level Denver Center
Wed 17:22:20 37.7722 -102.8600 346° North 467 864 34.000  Level Denver Center
Wed 17:23:21 37.8997 -102.9369 335° Northwest 456 845 34.000  Level Denver Center
Wed 17:24:22 37.9994 -103.0242 325° Northwest 453 838 34.000  Level Denver Center
Wed 17:25:24 38.1103 -103.1175 326° Northwest 459 850 34.000  Level Denver Center
Wed 17:26:25 38.2192 -103.2125 326° Northwest 461 855 34.000  Level Denver Center
Wed 17:27:26 38.3311 -103.3089 326° Northwest 464 859 34.000  Level Denver Center
Wed 17:28:28 38.4319 -103.3944 326° Northwest 457 847 34.000  Level Denver Center
Wed 17:29:29 38.5361 -103.4867 325° Northwest 447 827 34.000  Level Denver Center
Wed 17:30:30 38.6372 -103.5742 326° Northwest 458 848 34.000 -1.220 Level Denver Center
Wed 17:31:32 38.7564 -103.6811 325° Northwest 469 869 31.500 -3.073 Descending Denver Center
Wed 17:32:33 38.8614 -103.7728 326° Northwest 470 871 27.700 -3.171 Descending Denver Center
Wed 17:33:35 38.9706 -103.8661 326° Northwest 467 864 25.000 -2.634 Descending Denver Center
Wed 17:34:36 39.0739 -103.9586 325° Northwest 452 837 22.300 -2.607 Descending Denver Center
Wed 17:35:37 39.1747 -104.0486 325° Northwest 443 821 19.700 -2.000 Descending Denver Center
Wed 17:36:39 39.2656 -104.1569 317° Northwest 379 702 18.200 -1.073 Descending Denver Center
Wed 17:37:40 39.2903 -104.2542 288° West 287 531 17.500 -1.220 Descending Denver Center
Wed 17:38:42 39.3097 -104.3444 286° West 265 491 15.700 -1.463 Descending Denver Center
Wed 17:39:43 39.3303 -104.4314 287° West 251 465 14.500 -1.171 Descending Denver Center
Wed 17:40:45 39.3475 -104.5178 284° West 230 426 13.300 -1.122 Descending Denver Center
Wed 17:41:46 39.3603 -104.5997 281° West 231 428 12.200 -1.033 Descending Denver Center
Wed 17:42:47 39.3822 -104.6675 293° West 222 410 11.200 -1.024 Descending Denver Center
Wed 17:43:49 39.4403 -104.6639 North 193 357 10.100 -585 Descending Denver Center
Wed 17:44:50 39.4908 -104.6647 359° North 182 336 10.000 -49 Descending Denver Center
Wed 17:45:52 39.5428 -104.6647 360° North 187 346 10.000  Level Denver Center
Wed 17:46:53 39.5928 -104.6639 North 181 335 10.000 -439 Level Denver Center
Wed 17:47:55 39.6489 -104.6628 North 184 341 9.100 -878 Descending Denver Center
Wed 17:48:56 39.6975 -104.6622 North 179 332 8.200 -927 Descending Denver Center
Wed 17:49:58 39.7433 -104.6619 360° North 168 311 7.200 -829 Descending Denver Center
Wed 17:50:59 39.7786 -104.6611 North 122 225 6.500 -683 Descending Denver Center
Wed 17:52:01 39.8119 -104.6608 360° North 118 219 5.800 -537 Descending Denver Center
Wed 17:53:02 39.8425 -104.6617 359° North 111 206 5.400 -393 Descending Denver Center
Wed 17:55:00 39.8500 -104.6667 North  Level FlightAware Approximate
Wed 18:02:00 39.8617 -104.6732 North  Level Estimated

Login

Don't have an account? Register now (free) for customized features, flight alerts, and more!